sensor_id;sensor_type;location;lat;lon;timestamp;P1;durP1;ratioP1;P2;durP2;ratioP2
12484;SDS011;6307;46.804;11.580;2022-07-23T00:00:59;5.60;;;4.13;;
12484;SDS011;6307;46.804;11.580;2022-07-23T00:03:26;4.63;;;3.73;;
12484;SDS011;6307;46.804;11.580;2022-07-23T00:05:52;4.17;;;3.67;;
12484;SDS011;6307;46.804;11.580;2022-07-23T00:08:18;4.63;;;3.70;;
12484;SDS011;6307;46.804;11.580;2022-07-23T00:10:44;4.00;;;3.40;;
12484;SDS011;6307;46.804;11.580;2022-07-23T00:13:10;4.47;;;3.67;;
12484;SDS011;6307;46.804;11.580;2022-07-23T00:15:37;3.70;;;3.40;;
12484;SDS011;6307;46.804;11.580;2022-07-23T00:18:03;4.27;;;3.60;;
12484;SDS011;6307;46.804;11.580;2022-07-23T00:20:30;5.03;;;3.37;;
12484;SDS011;6307;46.804;11.580;2022-07-23T00:22:57;5.90;;;4.20;;
12484;SDS011;6307;46.804;11.580;2022-07-23T00:25:23;4.63;;;3.63;;
12484;SDS011;6307;46.804;11.580;2022-07-23T00:27:51;6.03;;;4.03;;
12484;SDS011;6307;46.804;11.580;2022-07-23T00:30:17;4.20;;;3.80;;
12484;SDS011;6307;46.804;11.580;2022-07-23T00:35:21;6.30;;;4.20;;
12484;SDS011;6307;46.804;11.580;2022-07-23T00:37:49;4.37;;;3.90;;
12484;SDS011;6307;46.804;11.580;2022-07-23T00:40:16;5.33;;;3.80;;
12484;SDS011;6307;46.804;11.580;2022-07-23T00:42:42;6.17;;;3.63;;
12484;SDS011;6307;46.804;11.580;2022-07-23T00:45:09;4.37;;;3.97;;
12484;SDS011;6307;46.804;11.580;2022-07-23T00:47:36;4.90;;;4.13;;
12484;SDS011;6307;46.804;11.580;2022-07-23T00:50:04;5.13;;;4.33;;
12484;SDS011;6307;46.804;11.580;2022-07-23T00:52:33;4.40;;;4.00;;
12484;SDS011;6307;46.804;11.580;2022-07-23T00:55:01;4.40;;;4.00;;
12484;SDS011;6307;46.804;11.580;2022-07-23T00:57:31;4.90;;;4.40;;
12484;SDS011;6307;46.804;11.580;2022-07-23T00:59:58;4.17;;;3.73;;
12484;SDS011;6307;46.804;11.580;2022-07-23T01:02:25;4.20;;;3.80;;
12484;SDS011;6307;46.804;11.580;2022-07-23T01:04:52;4.20;;;3.80;;
12484;SDS011;6307;46.804;11.580;2022-07-23T01:07:19;4.90;;;3.97;;
12484;SDS011;6307;46.804;11.580;2022-07-23T01:09:46;6.50;;;3.87;;
12484;SDS011;6307;46.804;11.580;2022-07-23T01:12:13;5.57;;;4.20;;
12484;SDS011;6307;46.804;11.580;2022-07-23T01:14:39;4.37;;;3.97;;
12484;SDS011;6307;46.804;11.580;2022-07-23T01:17:06;4.77;;;3.90;;
12484;SDS011;6307;46.804;11.580;2022-07-23T01:19:32;4.73;;;3.93;;
12484;SDS011;6307;46.804;11.580;2022-07-23T01:21:58;4.63;;;3.70;;
12484;SDS011;6307;46.804;11.580;2022-07-23T01:24:29;3.93;;;3.60;;
12484;SDS011;6307;46.804;11.580;2022-07-23T01:26:55;4.43;;;4.03;;
12484;SDS011;6307;46.804;11.580;2022-07-23T01:29:22;5.50;;;4.17;;
12484;SDS011;6307;46.804;11.580;2022-07-23T01:31:48;6.20;;;4.10;;
12484;SDS011;6307;46.804;11.580;2022-07-23T01:34:14;5.90;;;3.97;;
12484;SDS011;6307;46.804;11.580;2022-07-23T01:36:40;4.17;;;3.73;;
12484;SDS011;6307;46.804;11.580;2022-07-23T01:39:07;5.77;;;3.90;;
12484;SDS011;6307;46.804;11.580;2022-07-23T01:41:34;4.20;;;3.73;;
12484;SDS011;6307;46.804;11.580;2022-07-23T01:44:00;4.17;;;3.87;;
12484;SDS011;6307;46.804;11.580;2022-07-23T01:46:27;4.87;;;3.73;;
12484;SDS011;6307;46.804;11.580;2022-07-23T01:48:53;5.07;;;3.70;;
12484;SDS011;6307;46.804;11.580;2022-07-23T01:51:19;4.70;;;4.20;;
12484;SDS011;6307;46.804;11.580;2022-07-23T01:53:45;5.53;;;4.20;;
12484;SDS011;6307;46.804;11.580;2022-07-23T01:56:12;6.33;;;4.17;;
12484;SDS011;6307;46.804;11.580;2022-07-23T01:58:40;9.37;;;4.30;;
12484;SDS011;6307;46.804;11.580;2022-07-23T02:01:06;6.17;;;4.30;;
12484;SDS011;6307;46.804;11.580;2022-07-23T02:03:32;4.23;;;3.83;;
12484;SDS011;6307;46.804;11.580;2022-07-23T02:05:58;5.53;;;4.33;;
12484;SDS011;6307;46.804;11.580;2022-07-23T02:08:24;4.90;;;4.40;;
12484;SDS011;6307;46.804;11.580;2022-07-23T02:10:50;7.53;;;4.40;;
12484;SDS011;6307;46.804;11.580;2022-07-23T02:13:17;5.13;;;4.40;;
12484;SDS011;6307;46.804;11.580;2022-07-23T02:15:43;5.83;;;4.00;;
12484;SDS011;6307;46.804;11.580;2022-07-23T02:18:11;4.73;;;4.33;;
12484;SDS011;6307;46.804;11.580;2022-07-23T02:20:37;6.40;;;4.40;;
12484;SDS011;6307;46.804;11.580;2022-07-23T02:23:03;4.13;;;3.77;;
12484;SDS011;6307;46.804;11.580;2022-07-23T02:25:30;4.20;;;3.80;;
12484;SDS011;6307;46.804;11.580;2022-07-23T02:27:57;8.40;;;4.40;;
12484;SDS011;6307;46.804;11.580;2022-07-23T02:30:23;5.53;;;3.80;;
12484;SDS011;6307;46.804;11.580;2022-07-23T02:32:49;4.63;;;3.97;;
12484;SDS011;6307;46.804;11.580;2022-07-23T02:35:15;6.07;;;4.10;;
12484;SDS011;6307;46.804;11.580;2022-07-23T02:37:41;5.67;;;4.30;;
12484;SDS011;6307;46.804;11.580;2022-07-23T02:40:08;5.00;;;4.23;;
12484;SDS011;6307;46.804;11.580;2022-07-23T02:42:35;4.83;;;4.30;;
12484;SDS011;6307;46.804;11.580;2022-07-23T02:45:01;7.57;;;4.07;;
12484;SDS011;6307;46.804;11.580;2022-07-23T02:47:27;5.73;;;3.73;;
12484;SDS011;6307;46.804;11.580;2022-07-23T02:49:53;4.70;;;4.23;;
12484;SDS011;6307;46.804;11.580;2022-07-23T02:52:20;4.97;;;4.00;;
12484;SDS011;6307;46.804;11.580;2022-07-23T02:54:46;5.53;;;3.90;;
12484;SDS011;6307;46.804;11.580;2022-07-23T02:57:12;6.10;;;4.20;;
12484;SDS011;6307;46.804;11.580;2022-07-23T02:59:38;6.43;;;4.37;;
12484;SDS011;6307;46.804;11.580;2022-07-23T03:02:04;4.53;;;4.13;;
12484;SDS011;6307;46.804;11.580;2022-07-23T03:04:31;4.30;;;3.90;;
12484;SDS011;6307;46.804;11.580;2022-07-23T03:06:57;6.17;;;4.30;;
12484;SDS011;6307;46.804;11.580;2022-07-23T03:09:23;6.37;;;4.30;;
12484;SDS011;6307;46.804;11.580;2022-07-23T03:11:49;8.27;;;3.80;;
12484;SDS011;6307;46.804;11.580;2022-07-23T03:14:15;5.70;;;4.53;;
12484;SDS011;6307;46.804;11.580;2022-07-23T03:16:42;4.40;;;4.00;;
12484;SDS011;6307;46.804;11.580;2022-07-23T03:19:08;5.00;;;4.17;;
12484;SDS011;6307;46.804;11.580;2022-07-23T03:21:34;5.27;;;4.33;;
12484;SDS011;6307;46.804;11.580;2022-07-23T03:24:05;5.20;;;4.30;;
12484;SDS011;6307;46.804;11.580;2022-07-23T03:26:32;6.17;;;4.47;;
12484;SDS011;6307;46.804;11.580;2022-07-23T03:28:59;4.80;;;4.30;;
12484;SDS011;6307;46.804;11.580;2022-07-23T03:31:26;6.30;;;4.33;;
12484;SDS011;6307;46.804;11.580;2022-07-23T03:33:52;5.17;;;4.53;;
12484;SDS011;6307;46.804;11.580;2022-07-23T03:36:18;5.30;;;4.50;;
12484;SDS011;6307;46.804;11.580;2022-07-23T03:38:45;5.10;;;4.47;;
12484;SDS011;6307;46.804;11.580;2022-07-23T03:41:11;7.30;;;4.33;;
12484;SDS011;6307;46.804;11.580;2022-07-23T03:43:37;5.03;;;4.53;;
12484;SDS011;6307;46.804;11.580;2022-07-23T03:46:03;5.20;;;4.60;;
12484;SDS011;6307;46.804;11.580;2022-07-23T03:48:29;6.27;;;4.57;;
12484;SDS011;6307;46.804;11.580;2022-07-23T03:50:55;4.97;;;4.40;;
12484;SDS011;6307;46.804;11.580;2022-07-23T03:53:21;4.50;;;4.10;;
12484;SDS011;6307;46.804;11.580;2022-07-23T03:55:47;7.37;;;3.87;;
12484;SDS011;6307;46.804;11.580;2022-07-23T03:58:14;4.53;;;3.83;;
12484;SDS011;6307;46.804;11.580;2022-07-23T04:00:40;5.60;;;4.50;;
12484;SDS011;6307;46.804;11.580;2022-07-23T04:03:06;5.83;;;4.80;;
12484;SDS011;6307;46.804;11.580;2022-07-23T04:05:32;9.97;;;5.27;;
12484;SDS011;6307;46.804;11.580;2022-07-23T04:07:59;6.03;;;4.87;;
12484;SDS011;6307;46.804;11.580;2022-07-23T04:10:25;10.67;;;4.90;;
12484;SDS011;6307;46.804;11.580;2022-07-23T04:12:51;5.73;;;5.07;;
12484;SDS011;6307;46.804;11.580;2022-07-23T04:15:17;12.07;;;4.67;;
12484;SDS011;6307;46.804;11.580;2022-07-23T04:17:44;16.03;;;4.80;;
12484;SDS011;6307;46.804;11.580;2022-07-23T04:20:11;9.20;;;4.57;;
12484;SDS011;6307;46.804;11.580;2022-07-23T04:22:38;9.60;;;4.47;;
12484;SDS011;6307;46.804;11.580;2022-07-23T04:25:04;17.77;;;5.63;;
12484;SDS011;6307;46.804;11.580;2022-07-23T04:27:31;14.37;;;5.37;;
12484;SDS011;6307;46.804;11.580;2022-07-23T04:29:58;9.40;;;5.53;;
12484;SDS011;6307;46.804;11.580;2022-07-23T04:32:24;15.60;;;6.27;;
12484;SDS011;6307;46.804;11.580;2022-07-23T04:34:50;11.90;;;6.17;;
12484;SDS011;6307;46.804;11.580;2022-07-23T04:37:16;10.07;;;5.70;;
12484;SDS011;6307;46.804;11.580;2022-07-23T04:39:42;11.60;;;6.13;;
12484;SDS011;6307;46.804;11.580;2022-07-23T04:42:09;12.73;;;6.73;;
12484;SDS011;6307;46.804;11.580;2022-07-23T04:44:35;13.17;;;6.47;;
12484;SDS011;6307;46.804;11.580;2022-07-23T04:47:01;12.97;;;6.77;;
12484;SDS011;6307;46.804;11.580;2022-07-23T04:49:28;12.27;;;6.57;;
12484;SDS011;6307;46.804;11.580;2022-07-23T04:51:54;11.00;;;5.77;;
12484;SDS011;6307;46.804;11.580;2022-07-23T04:54:20;14.03;;;5.73;;
12484;SDS011;6307;46.804;11.580;2022-07-23T04:56:46;10.70;;;6.60;;
12484;SDS011;6307;46.804;11.580;2022-07-23T04:59:13;10.20;;;5.50;;
12484;SDS011;6307;46.804;11.580;2022-07-23T05:01:39;6.90;;;4.97;;
12484;SDS011;6307;46.804;11.580;2022-07-23T05:04:06;8.23;;;4.20;;
12484;SDS011;6307;46.804;11.580;2022-07-23T05:06:32;8.80;;;4.50;;
12484;SDS011;6307;46.804;11.580;2022-07-23T05:08:59;8.63;;;3.83;;
12484;SDS011;6307;46.804;11.580;2022-07-23T05:11:25;5.53;;;3.63;;
12484;SDS011;6307;46.804;11.580;2022-07-23T05:13:51;6.97;;;3.30;;
12484;SDS011;6307;46.804;11.580;2022-07-23T05:16:17;4.20;;;3.10;;
12484;SDS011;6307;46.804;11.580;2022-07-23T05:18:43;6.47;;;3.07;;
12484;SDS011;6307;46.804;11.580;2022-07-23T05:21:09;7.50;;;4.63;;
12484;SDS011;6307;46.804;11.580;2022-07-23T05:23:35;12.23;;;6.00;;
12484;SDS011;6307;46.804;11.580;2022-07-23T05:26:01;10.63;;;6.00;;
12484;SDS011;6307;46.804;11.580;2022-07-23T05:28:28;9.87;;;5.37;;
12484;SDS011;6307;46.804;11.580;2022-07-23T05:30:54;9.93;;;6.07;;
12484;SDS011;6307;46.804;11.580;2022-07-23T05:33:20;9.87;;;6.03;;
12484;SDS011;6307;46.804;11.580;2022-07-23T05:35:46;10.17;;;6.10;;
12484;SDS011;6307;46.804;11.580;2022-07-23T05:38:13;10.20;;;5.60;;
12484;SDS011;6307;46.804;11.580;2022-07-23T05:40:41;9.13;;;5.27;;
12484;SDS011;6307;46.804;11.580;2022-07-23T05:43:08;7.20;;;5.80;;
12484;SDS011;6307;46.804;11.580;2022-07-23T05:45:34;7.63;;;4.93;;
12484;SDS011;6307;46.804;11.580;2022-07-23T05:48:00;8.30;;;6.00;;
12484;SDS011;6307;46.804;11.580;2022-07-23T05:50:26;8.17;;;5.87;;
12484;SDS011;6307;46.804;11.580;2022-07-23T05:52:52;7.47;;;4.80;;
12484;SDS011;6307;46.804;11.580;2022-07-23T05:55:18;14.10;;;6.90;;
12484;SDS011;6307;46.804;11.580;2022-07-23T05:57:44;10.83;;;7.10;;
12484;SDS011;6307;46.804;11.580;2022-07-23T06:00:11;10.50;;;6.40;;
12484;SDS011;6307;46.804;11.580;2022-07-23T06:02:38;5.77;;;5.17;;
12484;SDS011;6307;46.804;11.580;2022-07-23T06:05:05;7.50;;;5.47;;
12484;SDS011;6307;46.804;11.580;2022-07-23T06:07:32;8.57;;;5.73;;
12484;SDS011;6307;46.804;11.580;2022-07-23T06:09:59;5.60;;;5.00;;
12484;SDS011;6307;46.804;11.580;2022-07-23T06:12:25;5.57;;;4.83;;
12484;SDS011;6307;46.804;11.580;2022-07-23T06:14:52;8.17;;;4.77;;
12484;SDS011;6307;46.804;11.580;2022-07-23T06:17:18;5.43;;;4.50;;
12484;SDS011;6307;46.804;11.580;2022-07-23T06:19:44;8.43;;;5.07;;
12484;SDS011;6307;46.804;11.580;2022-07-23T06:22:10;7.67;;;5.23;;
12484;SDS011;6307;46.804;11.580;2022-07-23T06:24:37;7.00;;;4.97;;
12484;SDS011;6307;46.804;11.580;2022-07-23T06:27:03;9.07;;;5.40;;
12484;SDS011;6307;46.804;11.580;2022-07-23T06:29:30;7.53;;;5.30;;
12484;SDS011;6307;46.804;11.580;2022-07-23T06:31:56;8.13;;;4.90;;
12484;SDS011;6307;46.804;11.580;2022-07-23T06:34:22;6.93;;;4.73;;
12484;SDS011;6307;46.804;11.580;2022-07-23T06:36:48;6.83;;;5.20;;
12484;SDS011;6307;46.804;11.580;2022-07-23T06:39:14;6.30;;;5.13;;
12484;SDS011;6307;46.804;11.580;2022-07-23T06:41:41;7.53;;;5.00;;
12484;SDS011;6307;46.804;11.580;2022-07-23T06:44:07;6.43;;;4.37;;
12484;SDS011;6307;46.804;11.580;2022-07-23T06:46:33;4.23;;;3.83;;
12484;SDS011;6307;46.804;11.580;2022-07-23T06:48:59;4.53;;;3.53;;
12484;SDS011;6307;46.804;11.580;2022-07-23T06:51:25;6.47;;;3.83;;
12484;SDS011;6307;46.804;11.580;2022-07-23T06:53:52;4.30;;;3.27;;
12484;SDS011;6307;46.804;11.580;2022-07-23T06:56:18;4.87;;;3.13;;
12484;SDS011;6307;46.804;11.580;2022-07-23T06:58:44;4.67;;;3.30;;
12484;SDS011;6307;46.804;11.580;2022-07-23T07:01:11;4.93;;;3.53;;
12484;SDS011;6307;46.804;11.580;2022-07-23T07:03:37;4.73;;;3.60;;
12484;SDS011;6307;46.804;11.580;2022-07-23T07:06:03;4.50;;;3.50;;
12484;SDS011;6307;46.804;11.580;2022-07-23T07:08:29;4.00;;;3.60;;
12484;SDS011;6307;46.804;11.580;2022-07-23T07:10:55;4.90;;;3.70;;
12484;SDS011;6307;46.804;11.580;2022-07-23T07:13:22;7.80;;;3.70;;
12484;SDS011;6307;46.804;11.580;2022-07-23T07:15:48;4.20;;;3.57;;
12484;SDS011;6307;46.804;11.580;2022-07-23T07:18:14;6.00;;;3.40;;
12484;SDS011;6307;46.804;11.580;2022-07-23T07:20:40;5.50;;;3.57;;
12484;SDS011;6307;46.804;11.580;2022-07-23T07:23:06;3.33;;;3.03;;
12484;SDS011;6307;46.804;11.580;2022-07-23T07:25:32;3.80;;;3.50;;
12484;SDS011;6307;46.804;11.580;2022-07-23T07:27:59;5.30;;;3.90;;
12484;SDS011;6307;46.804;11.580;2022-07-23T07:30:25;3.73;;;3.23;;
12484;SDS011;6307;46.804;11.580;2022-07-23T07:32:51;5.57;;;3.30;;
12484;SDS011;6307;46.804;11.580;2022-07-23T07:35:17;5.30;;;3.60;;
12484;SDS011;6307;46.804;11.580;2022-07-23T07:37:44;3.70;;;3.20;;
12484;SDS011;6307;46.804;11.580;2022-07-23T07:40:10;4.87;;;2.90;;
12484;SDS011;6307;46.804;11.580;2022-07-23T07:42:49;4.43;;;3.03;;
12484;SDS011;6307;46.804;11.580;2022-07-23T07:45:22;3.17;;;2.67;;
12484;SDS011;6307;46.804;11.580;2022-07-23T07:47:51;3.67;;;2.60;;
12484;SDS011;6307;46.804;11.580;2022-07-23T07:50:18;4.00;;;2.87;;
12484;SDS011;6307;46.804;11.580;2022-07-23T07:52:47;5.17;;;2.67;;
12484;SDS011;6307;46.804;11.580;2022-07-23T07:55:13;4.13;;;2.40;;
12484;SDS011;6307;46.804;11.580;2022-07-23T07:57:40;3.93;;;2.40;;
12484;SDS011;6307;46.804;11.580;2022-07-23T08:00:07;2.80;;;2.50;;
12484;SDS011;6307;46.804;11.580;2022-07-23T08:02:42;2.70;;;2.50;;
12484;SDS011;6307;46.804;11.580;2022-07-23T08:05:14;4.43;;;2.63;;
12484;SDS011;6307;46.804;11.580;2022-07-23T08:07:48;2.50;;;2.30;;
12484;SDS011;6307;46.804;11.580;2022-07-23T08:10:15;3.47;;;2.40;;
12484;SDS011;6307;46.804;11.580;2022-07-23T08:12:43;4.23;;;2.70;;
12484;SDS011;6307;46.804;11.580;2022-07-23T08:15:16;3.30;;;2.60;;
12484;SDS011;6307;46.804;11.580;2022-07-23T08:17:45;4.07;;;2.80;;
12484;SDS011;6307;46.804;11.580;2022-07-23T08:20:13;2.70;;;2.47;;
12484;SDS011;6307;46.804;11.580;2022-07-23T08:25:27;3.07;;;2.77;;
12484;SDS011;6307;46.804;11.580;2022-07-23T08:27:59;3.00;;;2.57;;
12484;SDS011;6307;46.804;11.580;2022-07-23T08:30:28;3.33;;;2.70;;
12484;SDS011;6307;46.804;11.580;2022-07-23T08:35:32;5.13;;;2.60;;
12484;SDS011;6307;46.804;11.580;2022-07-23T08:38:03;3.80;;;2.50;;
12484;SDS011;6307;46.804;11.580;2022-07-23T08:40:33;3.50;;;2.93;;
12484;SDS011;6307;46.804;11.580;2022-07-23T08:43:06;2.93;;;2.50;;
12484;SDS011;6307;46.804;11.580;2022-07-23T08:45:36;3.33;;;2.50;;
12484;SDS011;6307;46.804;11.580;2022-07-23T08:48:11;2.93;;;2.57;;
12484;SDS011;6307;46.804;11.580;2022-07-23T08:50:44;2.30;;;2.10;;
12484;SDS011;6307;46.804;11.580;2022-07-23T08:53:16;2.73;;;2.33;;
12484;SDS011;6307;46.804;11.580;2022-07-23T08:55:47;2.43;;;2.17;;
12484;SDS011;6307;46.804;11.580;2022-07-23T08:58:17;2.30;;;2.10;;
12484;SDS011;6307;46.804;11.580;2022-07-23T09:00:44;3.43;;;3.10;;
12484;SDS011;6307;46.804;11.580;2022-07-23T09:03:15;3.60;;;2.57;;
12484;SDS011;6307;46.804;11.580;2022-07-23T09:05:44;3.60;;;2.90;;
12484;SDS011;6307;46.804;11.580;2022-07-23T09:08:13;2.83;;;2.50;;
12484;SDS011;6307;46.804;11.580;2022-07-23T09:16:09;3.80;;;2.70;;
12484;SDS011;6307;46.804;11.580;2022-07-23T09:18:46;3.03;;;2.73;;
12484;SDS011;6307;46.804;11.580;2022-07-23T09:21:27;3.10;;;2.80;;
12484;SDS011;6307;46.804;11.580;2022-07-23T09:29:06;3.57;;;3.20;;
12484;SDS011;6307;46.804;11.580;2022-07-23T09:37:15;3.13;;;2.77;;
12484;SDS011;6307;46.804;11.580;2022-07-23T09:39:44;3.33;;;3.03;;
12484;SDS011;6307;46.804;11.580;2022-07-23T09:44:44;3.87;;;3.10;;
12484;SDS011;6307;46.804;11.580;2022-07-23T09:47:15;4.03;;;3.03;;
12484;SDS011;6307;46.804;11.580;2022-07-23T09:52:35;3.50;;;2.87;;
12484;SDS011;6307;46.804;11.580;2022-07-23T09:55:09;3.07;;;2.63;;
12484;SDS011;6307;46.804;11.580;2022-07-23T09:57:35;4.10;;;2.77;;
12484;SDS011;6307;46.804;11.580;2022-07-23T10:00:05;3.53;;;2.77;;
12484;SDS011;6307;46.804;11.580;2022-07-23T10:02:36;3.17;;;2.50;;
12484;SDS011;6307;46.804;11.580;2022-07-23T10:05:04;3.50;;;2.60;;
12484;SDS011;6307;46.804;11.580;2022-07-23T10:07:32;2.53;;;2.33;;
12484;SDS011;6307;46.804;11.580;2022-07-23T10:10:05;4.47;;;2.80;;
12484;SDS011;6307;46.804;11.580;2022-07-23T10:12:32;4.70;;;3.00;;
12484;SDS011;6307;46.804;11.580;2022-07-23T10:15:03;2.70;;;2.50;;
12484;SDS011;6307;46.804;11.580;2022-07-23T10:17:31;2.63;;;2.40;;
12484;SDS011;6307;46.804;11.580;2022-07-23T10:19:58;3.50;;;2.80;;
12484;SDS011;6307;46.804;11.580;2022-07-23T10:22:44;3.73;;;2.30;;
12484;SDS011;6307;46.804;11.580;2022-07-23T10:32:00;2.13;;;1.90;;
12484;SDS011;6307;46.804;11.580;2022-07-23T10:34:49;2.37;;;2.17;;
12484;SDS011;6307;46.804;11.580;2022-07-23T10:38:01;4.23;;;2.23;;
12484;SDS011;6307;46.804;11.580;2022-07-23T10:40:49;2.30;;;2.10;;
12484;SDS011;6307;46.804;11.580;2022-07-23T10:43:28;2.17;;;1.97;;
12484;SDS011;6307;46.804;11.580;2022-07-23T10:45:56;1.70;;;1.60;;
12484;SDS011;6307;46.804;11.580;2022-07-23T10:54:43;2.03;;;1.83;;
12484;SDS011;6307;46.804;11.580;2022-07-23T10:57:24;2.40;;;2.20;;
12484;SDS011;6307;46.804;11.580;2022-07-23T11:02:28;2.03;;;1.83;;
12484;SDS011;6307;46.804;11.580;2022-07-23T11:05:01;1.70;;;1.60;;
12484;SDS011;6307;46.804;11.580;2022-07-23T11:07:30;2.17;;;1.90;;
12484;SDS011;6307;46.804;11.580;2022-07-23T11:09:56;1.97;;;1.63;;
12484;SDS011;6307;46.804;11.580;2022-07-23T11:22:35;2.20;;;2.00;;
12484;SDS011;6307;46.804;11.580;2022-07-23T11:25:01;2.20;;;2.00;;
12484;SDS011;6307;46.804;11.580;2022-07-23T11:27:41;2.10;;;1.90;;
12484;SDS011;6307;46.804;11.580;2022-07-23T11:30:37;1.80;;;1.70;;
12484;SDS011;6307;46.804;11.580;2022-07-23T11:35:32;2.90;;;2.00;;
12484;SDS011;6307;46.804;11.580;2022-07-23T11:40:30;1.97;;;1.83;;
12484;SDS011;6307;46.804;11.580;2022-07-23T11:45:33;3.57;;;1.80;;
12484;SDS011;6307;46.804;11.580;2022-07-23T11:48:08;3.33;;;1.80;;
12484;SDS011;6307;46.804;11.580;2022-07-23T11:50:42;1.80;;;1.70;;
12484;SDS011;6307;46.804;11.580;2022-07-23T11:53:09;4.20;;;2.23;;
12484;SDS011;6307;46.804;11.580;2022-07-23T11:55:35;2.50;;;2.03;;
12484;SDS011;6307;46.804;11.580;2022-07-23T11:58:02;1.80;;;1.70;;
12484;SDS011;6307;46.804;11.580;2022-07-23T12:00:29;2.10;;;1.90;;
12484;SDS011;6307;46.804;11.580;2022-07-23T12:03:01;1.80;;;1.70;;
12484;SDS011;6307;46.804;11.580;2022-07-23T12:05:32;2.40;;;2.00;;
12484;SDS011;6307;46.804;11.580;2022-07-23T12:08:02;2.30;;;2.10;;
12484;SDS011;6307;46.804;11.580;2022-07-23T12:10:35;3.87;;;2.50;;
12484;SDS011;6307;46.804;11.580;2022-07-23T12:13:10;3.37;;;2.30;;
12484;SDS011;6307;46.804;11.580;2022-07-23T12:15:43;2.53;;;2.33;;
12484;SDS011;6307;46.804;11.580;2022-07-23T12:18:22;2.10;;;1.90;;
12484;SDS011;6307;46.804;11.580;2022-07-23T12:20:52;2.87;;;1.60;;
12484;SDS011;6307;46.804;11.580;2022-07-23T12:23:22;2.10;;;1.90;;
12484;SDS011;6307;46.804;11.580;2022-07-23T12:25:51;3.13;;;1.60;;
12484;SDS011;6307;46.804;11.580;2022-07-23T12:28:20;2.30;;;2.10;;
12484;SDS011;6307;46.804;11.580;2022-07-23T12:31:01;2.00;;;1.90;;
12484;SDS011;6307;46.804;11.580;2022-07-23T12:33:35;2.00;;;1.90;;
12484;SDS011;6307;46.804;11.580;2022-07-23T12:36:04;1.97;;;1.70;;
12484;SDS011;6307;46.804;11.580;2022-07-23T12:38:37;2.00;;;1.70;;
12484;SDS011;6307;46.804;11.580;2022-07-23T12:41:14;1.90;;;1.77;;
12484;SDS011;6307;46.804;11.580;2022-07-23T12:43:42;2.70;;;2.10;;
12484;SDS011;6307;46.804;11.580;2022-07-23T12:51:17;3.20;;;1.93;;
12484;SDS011;6307;46.804;11.580;2022-07-23T12:53:56;2.00;;;1.80;;
12484;SDS011;6307;46.804;11.580;2022-07-23T12:56:35;4.10;;;1.90;;
12484;SDS011;6307;46.804;11.580;2022-07-23T12:59:06;2.43;;;1.90;;
12484;SDS011;6307;46.804;11.580;2022-07-23T13:01:36;3.33;;;2.10;;
12484;SDS011;6307;46.804;11.580;2022-07-23T13:06:45;2.80;;;2.00;;
12484;SDS011;6307;46.804;11.580;2022-07-23T13:09:19;2.27;;;2.07;;
12484;SDS011;6307;46.804;11.580;2022-07-23T13:11:48;2.57;;;2.10;;
12484;SDS011;6307;46.804;11.580;2022-07-23T13:14:16;3.07;;;2.50;;
12484;SDS011;6307;46.804;11.580;2022-07-23T13:16:44;3.80;;;2.30;;
12484;SDS011;6307;46.804;11.580;2022-07-23T13:19:11;2.43;;;2.23;;
12484;SDS011;6307;46.804;11.580;2022-07-23T13:21:38;2.77;;;2.40;;
12484;SDS011;6307;46.804;11.580;2022-07-23T13:24:10;2.60;;;2.40;;
12484;SDS011;6307;46.804;11.580;2022-07-23T13:26:37;3.60;;;2.67;;
12484;SDS011;6307;46.804;11.580;2022-07-23T13:29:05;3.57;;;2.70;;
12484;SDS011;6307;46.804;11.580;2022-07-23T13:31:32;4.10;;;2.77;;
12484;SDS011;6307;46.804;11.580;2022-07-23T13:33:58;2.90;;;2.50;;
12484;SDS011;6307;46.804;11.580;2022-07-23T13:36:24;4.47;;;3.10;;
12484;SDS011;6307;46.804;11.580;2022-07-23T13:38:51;2.90;;;2.70;;
12484;SDS011;6307;46.804;11.580;2022-07-23T13:41:17;3.27;;;2.90;;
12484;SDS011;6307;46.804;11.580;2022-07-23T13:43:44;4.10;;;2.67;;
12484;SDS011;6307;46.804;11.580;2022-07-23T13:46:10;5.30;;;3.10;;
12484;SDS011;6307;46.804;11.580;2022-07-23T13:48:36;4.80;;;3.60;;
12484;SDS011;6307;46.804;11.580;2022-07-23T13:51:03;6.40;;;4.20;;
12484;SDS011;6307;46.804;11.580;2022-07-23T13:53:29;3.80;;;3.40;;
12484;SDS011;6307;46.804;11.580;2022-07-23T13:55:55;4.63;;;3.73;;
12484;SDS011;6307;46.804;11.580;2022-07-23T13:58:22;4.33;;;3.93;;
12484;SDS011;6307;46.804;11.580;2022-07-23T14:00:50;5.67;;;4.43;;
12484;SDS011;6307;46.804;11.580;2022-07-23T14:03:18;4.80;;;4.27;;
12484;SDS011;6307;46.804;11.580;2022-07-23T14:05:51;6.33;;;5.13;;
12484;SDS011;6307;46.804;11.580;2022-07-23T14:08:18;5.10;;;4.60;;
12484;SDS011;6307;46.804;11.580;2022-07-23T14:10:44;6.57;;;5.00;;
12484;SDS011;6307;46.804;11.580;2022-07-23T14:13:11;5.33;;;4.80;;
12484;SDS011;6307;46.804;11.580;2022-07-23T14:15:37;10.73;;;4.60;;
12484;SDS011;6307;46.804;11.580;2022-07-23T14:18:05;6.23;;;5.10;;
12484;SDS011;6307;46.804;11.580;2022-07-23T14:20:32;5.27;;;4.63;;
12484;SDS011;6307;46.804;11.580;2022-07-23T14:22:59;5.37;;;4.87;;
12484;SDS011;6307;46.804;11.580;2022-07-23T14:25:25;6.50;;;5.10;;
12484;SDS011;6307;46.804;11.580;2022-07-23T14:27:52;5.30;;;4.77;;
12484;SDS011;6307;46.804;11.580;2022-07-23T14:30:19;5.83;;;5.00;;
12484;SDS011;6307;46.804;11.580;2022-07-23T14:32:48;5.40;;;4.90;;
12484;SDS011;6307;46.804;11.580;2022-07-23T14:35:14;5.50;;;4.70;;
12484;SDS011;6307;46.804;11.580;2022-07-23T14:37:40;11.00;;;5.47;;
12484;SDS011;6307;46.804;11.580;2022-07-23T14:40:06;5.23;;;4.33;;
12484;SDS011;6307;46.804;11.580;2022-07-23T14:42:33;5.43;;;4.50;;
12484;SDS011;6307;46.804;11.580;2022-07-23T14:44:59;6.77;;;5.20;;
12484;SDS011;6307;46.804;11.580;2022-07-23T14:47:25;6.53;;;5.00;;
12484;SDS011;6307;46.804;11.580;2022-07-23T14:49:51;6.67;;;5.47;;
12484;SDS011;6307;46.804;11.580;2022-07-23T14:52:17;6.37;;;5.77;;
12484;SDS011;6307;46.804;11.580;2022-07-23T14:54:44;6.30;;;5.70;;
12484;SDS011;6307;46.804;11.580;2022-07-23T14:57:10;5.80;;;5.20;;
12484;SDS011;6307;46.804;11.580;2022-07-23T14:59:36;6.70;;;5.73;;
12484;SDS011;6307;46.804;11.580;2022-07-23T15:02:02;8.13;;;6.50;;
12484;SDS011;6307;46.804;11.580;2022-07-23T15:04:28;7.33;;;6.70;;
12484;SDS011;6307;46.804;11.580;2022-07-23T15:06:55;9.97;;;6.80;;
12484;SDS011;6307;46.804;11.580;2022-07-23T15:09:21;10.87;;;7.10;;
12484;SDS011;6307;46.804;11.580;2022-07-23T15:11:47;9.33;;;6.53;;
12484;SDS011;6307;46.804;11.580;2022-07-23T15:14:13;8.80;;;6.20;;
12484;SDS011;6307;46.804;11.580;2022-07-23T15:16:39;8.07;;;6.07;;
12484;SDS011;6307;46.804;11.580;2022-07-23T15:19:05;7.10;;;6.10;;
12484;SDS011;6307;46.804;11.580;2022-07-23T15:21:32;8.27;;;7.37;;
12484;SDS011;6307;46.804;11.580;2022-07-23T15:23:58;6.33;;;5.67;;
12484;SDS011;6307;46.804;11.580;2022-07-23T15:26:25;8.97;;;6.27;;
12484;SDS011;6307;46.804;11.580;2022-07-23T15:28:53;7.57;;;6.77;;
12484;SDS011;6307;46.804;11.580;2022-07-23T15:31:21;11.67;;;6.60;;
12484;SDS011;6307;46.804;11.580;2022-07-23T15:33:48;8.87;;;6.83;;
12484;SDS011;6307;46.804;11.580;2022-07-23T15:36:16;9.10;;;6.17;;
12484;SDS011;6307;46.804;11.580;2022-07-23T15:38:44;8.37;;;6.23;;
12484;SDS011;6307;46.804;11.580;2022-07-23T15:41:11;8.37;;;6.30;;
12484;SDS011;6307;46.804;11.580;2022-07-23T15:43:37;6.20;;;5.60;;
12484;SDS011;6307;46.804;11.580;2022-07-23T15:46:04;6.23;;;5.63;;
12484;SDS011;6307;46.804;11.580;2022-07-23T15:48:33;7.27;;;5.93;;
12484;SDS011;6307;46.804;11.580;2022-07-23T15:51:02;6.80;;;6.20;;
12484;SDS011;6307;46.804;11.580;2022-07-23T15:53:29;7.00;;;6.30;;
12484;SDS011;6307;46.804;11.580;2022-07-23T15:55:56;6.07;;;5.43;;
12484;SDS011;6307;46.804;11.580;2022-07-23T15:58:22;7.30;;;6.03;;
12484;SDS011;6307;46.804;11.580;2022-07-23T16:00:48;6.70;;;6.00;;